sensor_id;sensor_type;location;lat;lon;timestamp;temperature;humidity
27224;DHT22;14965;50.660;13.226;2023-03-24T00:00:05;11.50;99.90
27224;DHT22;14965;50.660;13.226;2023-03-24T00:02:32;11.50;99.90
27224;DHT22;14965;50.660;13.226;2023-03-24T00:04:58;11.50;99.90
27224;DHT22;14965;50.660;13.226;2023-03-24T00:07:25;11.50;99.90
27224;DHT22;14965;50.660;13.226;2023-03-24T00:09:53;11.50;99.90
27224;DHT22;14965;50.660;13.226;2023-03-24T00:12:19;11.50;99.90
27224;DHT22;14965;50.660;13.226;2023-03-24T00:14:45;11.50;99.90
27224;DHT22;14965;50.660;13.226;2023-03-24T00:17:11;11.40;99.90
27224;DHT22;14965;50.660;13.226;2023-03-24T00:19:37;11.40;99.90
27224;DHT22;14965;50.660;13.226;2023-03-24T00:22:04;11.50;99.90
27224;DHT22;14965;50.660;13.226;2023-03-24T00:24:30;11.50;99.90
27224;DHT22;14965;50.660;13.226;2023-03-24T00:26:57;11.50;99.90
27224;DHT22;14965;50.660;13.226;2023-03-24T00:29:24;11.50;99.90
27224;DHT22;14965;50.660;13.226;2023-03-24T00:31:50;11.40;99.90
27224;DHT22;14965;50.660;13.226;2023-03-24T00:34:16;11.50;99.90
27224;DHT22;14965;50.660;13.226;2023-03-24T00:36:42;11.50;99.90
27224;DHT22;14965;50.660;13.226;2023-03-24T00:39:08;11.40;99.90
27224;DHT22;14965;50.660;13.226;2023-03-24T00:41:34;11.50;99.90
27224;DHT22;14965;50.660;13.226;2023-03-24T00:44:01;11.50;99.90
27224;DHT22;14965;50.660;13.226;2023-03-24T00:46:27;11.50;99.90
27224;DHT22;14965;50.660;13.226;2023-03-24T00:48:55;11.50;99.90
27224;DHT22;14965;50.660;13.226;2023-03-24T00:51:22;11.50;99.90
27224;DHT22;14965;50.660;13.226;2023-03-24T00:53:48;11.50;99.90
27224;DHT22;14965;50.660;13.226;2023-03-24T00:56:14;11.50;99.90
27224;DHT22;14965;50.660;13.226;2023-03-24T00:58:40;11.50;99.90
27224;DHT22;14965;50.660;13.226;2023-03-24T01:01:07;11.50;99.90
27224;DHT22;14965;50.660;13.226;2023-03-24T01:03:33;11.60;99.90
27224;DHT22;14965;50.660;13.226;2023-03-24T01:06:00;11.60;99.90
27224;DHT22;14965;50.660;13.226;2023-03-24T01:08:27;11.60;99.90
27224;DHT22;14965;50.660;13.226;2023-03-24T01:10:53;11.60;99.90
27224;DHT22;14965;50.660;13.226;2023-03-24T01:13:20;11.60;99.90
27224;DHT22;14965;50.660;13.226;2023-03-24T01:15:48;11.60;99.90
27224;DHT22;14965;50.660;13.226;2023-03-24T01:18:17;11.60;99.90
27224;DHT22;14965;50.660;13.226;2023-03-24T01:20:45;11.60;99.90
27224;DHT22;14965;50.660;13.226;2023-03-24T01:23:13;11.50;99.90
27224;DHT22;14965;50.660;13.226;2023-03-24T01:25:41;11.50;99.90
27224;DHT22;14965;50.660;13.226;2023-03-24T01:28:08;11.50;99.90
27224;DHT22;14965;50.660;13.226;2023-03-24T01:30:34;11.50;99.90
27224;DHT22;14965;50.660;13.226;2023-03-24T01:33:00;11.60;99.90
27224;DHT22;14965;50.660;13.226;2023-03-24T01:35:27;11.50;99.90
27224;DHT22;14965;50.660;13.226;2023-03-24T01:37:53;11.60;99.90
27224;DHT22;14965;50.660;13.226;2023-03-24T01:40:22;11.60;99.90
27224;DHT22;14965;50.660;13.226;2023-03-24T01:42:50;11.60;99.90
27224;DHT22;14965;50.660;13.226;2023-03-24T01:45:43;11.50;99.90
27224;DHT22;14965;50.660;13.226;2023-03-24T01:48:22;11.50;99.90
27224;DHT22;14965;50.660;13.226;2023-03-24T01:50:54;11.60;99.90
27224;DHT22;14965;50.660;13.226;2023-03-24T01:53:22;11.50;99.90
27224;DHT22;14965;50.660;13.226;2023-03-24T01:55:50;11.50;99.90
27224;DHT22;14965;50.660;13.226;2023-03-24T01:58:17;11.50;99.90
27224;DHT22;14965;50.660;13.226;2023-03-24T02:00:44;11.50;99.90
27224;DHT22;14965;50.660;13.226;2023-03-24T02:03:11;11.50;99.90
27224;DHT22;14965;50.660;13.226;2023-03-24T02:05:43;11.50;99.90
27224;DHT22;14965;50.660;13.226;2023-03-24T02:08:17;11.50;99.90
27224;DHT22;14965;50.660;13.226;2023-03-24T02:10:48;11.50;99.90
27224;DHT22;14965;50.660;13.226;2023-03-24T02:13:16;11.50;99.90
27224;DHT22;14965;50.660;13.226;2023-03-24T02:15:49;11.50;99.90
27224;DHT22;14965;50.660;13.226;2023-03-24T02:18:25;11.40;99.90
27224;DHT22;14965;50.660;13.226;2023-03-24T02:21:23;11.40;99.90
27224;DHT22;14965;50.660;13.226;2023-03-24T02:24:41;11.40;99.90
27224;DHT22;14965;50.660;13.226;2023-03-24T02:27:43;11.30;99.90
27224;DHT22;14965;50.660;13.226;2023-03-24T02:30:37;11.30;99.90
27224;DHT22;14965;50.660;13.226;2023-03-24T02:34:05;11.30;99.90
27224;DHT22;14965;50.660;13.226;2023-03-24T02:37:12;11.30;99.90
27224;DHT22;14965;50.660;13.226;2023-03-24T02:40:09;11.20;99.90
27224;DHT22;14965;50.660;13.226;2023-03-24T02:42:55;11.20;99.90
27224;DHT22;14965;50.660;13.226;2023-03-24T02:45:34;11.20;99.90
27224;DHT22;14965;50.660;13.226;2023-03-24T02:48:14;11.20;99.90
27224;DHT22;14965;50.660;13.226;2023-03-24T02:50:50;11.20;99.90
27224;DHT22;14965;50.660;13.226;2023-03-24T02:53:27;11.20;99.90
27224;DHT22;14965;50.660;13.226;2023-03-24T02:56:01;11.20;99.90
27224;DHT22;14965;50.660;13.226;2023-03-24T02:58:36;11.10;99.90
27224;DHT22;14965;50.660;13.226;2023-03-24T03:01:10;11.20;99.90
27224;DHT22;14965;50.660;13.226;2023-03-24T03:03:43;11.20;99.90
27224;DHT22;14965;50.660;13.226;2023-03-24T03:06:16;11.10;99.90
27224;DHT22;14965;50.660;13.226;2023-03-24T03:08:47;11.10;99.90
27224;DHT22;14965;50.660;13.226;2023-03-24T03:11:16;11.10;99.90
27224;DHT22;14965;50.660;13.226;2023-03-24T03:13:47;11.10;99.90
27224;DHT22;14965;50.660;13.226;2023-03-24T03:16:21;11.10;99.90
27224;DHT22;14965;50.660;13.226;2023-03-24T03:18:55;11.20;99.90
27224;DHT22;14965;50.660;13.226;2023-03-24T03:21:27;11.10;99.90
27224;DHT22;14965;50.660;13.226;2023-03-24T03:23:59;11.20;99.90
27224;DHT22;14965;50.660;13.226;2023-03-24T03:26:31;11.20;99.90
27224;DHT22;14965;50.660;13.226;2023-03-24T03:29:02;11.20;99.90
27224;DHT22;14965;50.660;13.226;2023-03-24T03:31:35;11.20;99.90
27224;DHT22;14965;50.660;13.226;2023-03-24T03:34:10;11.20;99.90
27224;DHT22;14965;50.660;13.226;2023-03-24T03:36:47;11.30;99.90
27224;DHT22;14965;50.660;13.226;2023-03-24T03:39:22;11.20;99.90
27224;DHT22;14965;50.660;13.226;2023-03-24T03:41:55;11.20;99.90
27224;DHT22;14965;50.660;13.226;2023-03-24T03:44:22;11.20;99.90
27224;DHT22;14965;50.660;13.226;2023-03-24T03:46:48;11.20;99.90
27224;DHT22;14965;50.660;13.226;2023-03-24T03:49:14;11.20;99.90
27224;DHT22;14965;50.660;13.226;2023-03-24T03:51:40;11.30;99.90
27224;DHT22;14965;50.660;13.226;2023-03-24T03:54:09;11.30;99.90
27224;DHT22;14965;50.660;13.226;2023-03-24T03:56:38;11.30;99.90
27224;DHT22;14965;50.660;13.226;2023-03-24T03:59:06;11.30;99.90
27224;DHT22;14965;50.660;13.226;2023-03-24T04:01:35;11.30;99.90
27224;DHT22;14965;50.660;13.226;2023-03-24T04:04:10;11.30;99.90
27224;DHT22;14965;50.660;13.226;2023-03-24T04:06:53;11.30;99.90
27224;DHT22;14965;50.660;13.226;2023-03-24T04:09:36;11.30;99.90
27224;DHT22;14965;50.660;13.226;2023-03-24T04:12:22;11.30;99.90
27224;DHT22;14965;50.660;13.226;2023-03-24T04:15:25;11.30;99.90
27224;DHT22;14965;50.660;13.226;2023-03-24T04:18:08;11.40;99.90
27224;DHT22;14965;50.660;13.226;2023-03-24T04:20:46;11.30;99.90
27224;DHT22;14965;50.660;13.226;2023-03-24T04:23:24;11.20;99.90
27224;DHT22;14965;50.660;13.226;2023-03-24T04:26:03;11.20;99.90
27224;DHT22;14965;50.660;13.226;2023-03-24T04:28:40;11.20;99.90
27224;DHT22;14965;50.660;13.226;2023-03-24T04:31:17;11.20;99.90
27224;DHT22;14965;50.660;13.226;2023-03-24T04:33:49;11.20;99.90
27224;DHT22;14965;50.660;13.226;2023-03-24T04:36:23;11.20;99.90
27224;DHT22;14965;50.660;13.226;2023-03-24T04:38:55;11.10;99.90
27224;DHT22;14965;50.660;13.226;2023-03-24T04:41:23;11.20;99.90
27224;DHT22;14965;50.660;13.226;2023-03-24T04:43:54;11.10;99.90
27224;DHT22;14965;50.660;13.226;2023-03-24T04:46:23;11.10;99.90
27224;DHT22;14965;50.660;13.226;2023-03-24T04:48:50;11.10;99.90
27224;DHT22;14965;50.660;13.226;2023-03-24T04:51:17;11.10;99.90
27224;DHT22;14965;50.660;13.226;2023-03-24T04:53:44;11.10;99.90
27224;DHT22;14965;50.660;13.226;2023-03-24T04:56:27;11.10;99.90
27224;DHT22;14965;50.660;13.226;2023-03-24T04:58:55;11.20;99.90
27224;DHT22;14965;50.660;13.226;2023-03-24T05:01:21;11.20;99.90
27224;DHT22;14965;50.660;13.226;2023-03-24T05:03:48;11.20;99.90
27224;DHT22;14965;50.660;13.226;2023-03-24T05:06:14;11.20;99.90
27224;DHT22;14965;50.660;13.226;2023-03-24T05:08:41;11.20;99.90
27224;DHT22;14965;50.660;13.226;2023-03-24T05:11:07;11.20;99.90
27224;DHT22;14965;50.660;13.226;2023-03-24T05:13:33;11.20;99.90
27224;DHT22;14965;50.660;13.226;2023-03-24T05:15:59;11.30;99.90
27224;DHT22;14965;50.660;13.226;2023-03-24T05:18:25;11.30;99.90
27224;DHT22;14965;50.660;13.226;2023-03-24T05:20:52;11.30;99.90
27224;DHT22;14965;50.660;13.226;2023-03-24T05:23:18;11.30;99.90
27224;DHT22;14965;50.660;13.226;2023-03-24T05:25:45;11.30;99.90
27224;DHT22;14965;50.660;13.226;2023-03-24T05:28:11;11.40;99.90
27224;DHT22;14965;50.660;13.226;2023-03-24T05:30:37;11.40;99.90
27224;DHT22;14965;50.660;13.226;2023-03-24T05:33:03;11.40;99.90
27224;DHT22;14965;50.660;13.226;2023-03-24T05:35:29;11.50;99.90
27224;DHT22;14965;50.660;13.226;2023-03-24T05:37:56;11.50;99.90
27224;DHT22;14965;50.660;13.226;2023-03-24T05:40:22;11.50;99.90
27224;DHT22;14965;50.660;13.226;2023-03-24T05:42:49;11.50;99.90
27224;DHT22;14965;50.660;13.226;2023-03-24T05:45:15;11.50;99.90
27224;DHT22;14965;50.660;13.226;2023-03-24T05:47:42;11.50;99.90
27224;DHT22;14965;50.660;13.226;2023-03-24T05:50:09;11.60;99.90
27224;DHT22;14965;50.660;13.226;2023-03-24T05:52:35;11.60;99.90
27224;DHT22;14965;50.660;13.226;2023-03-24T05:55:03;11.60;99.90
27224;DHT22;14965;50.660;13.226;2023-03-24T05:57:29;11.60;99.90
27224;DHT22;14965;50.660;13.226;2023-03-24T05:59:56;11.70;99.90
27224;DHT22;14965;50.660;13.226;2023-03-24T06:02:22;11.70;99.90
27224;DHT22;14965;50.660;13.226;2023-03-24T06:04:51;11.80;99.90
27224;DHT22;14965;50.660;13.226;2023-03-24T06:07:17;11.80;99.90
27224;DHT22;14965;50.660;13.226;2023-03-24T06:09:43;11.90;99.90
27224;DHT22;14965;50.660;13.226;2023-03-24T06:12:12;11.90;99.90
27224;DHT22;14965;50.660;13.226;2023-03-24T06:14:38;12.00;99.90
27224;DHT22;14965;50.660;13.226;2023-03-24T06:17:06;12.00;99.90
27224;DHT22;14965;50.660;13.226;2023-03-24T06:19:32;12.00;99.90
27224;DHT22;14965;50.660;13.226;2023-03-24T06:21:58;12.00;99.90
27224;DHT22;14965;50.660;13.226;2023-03-24T06:24:24;12.10;99.90
27224;DHT22;14965;50.660;13.226;2023-03-24T06:26:50;12.10;99.90
27224;DHT22;14965;50.660;13.226;2023-03-24T06:29:18;12.10;99.90
27224;DHT22;14965;50.660;13.226;2023-03-24T06:31:44;12.10;99.90
27224;DHT22;14965;50.660;13.226;2023-03-24T06:34:10;12.20;99.90
27224;DHT22;14965;50.660;13.226;2023-03-24T06:36:36;12.20;99.90
27224;DHT22;14965;50.660;13.226;2023-03-24T06:39:03;12.20;99.90
27224;DHT22;14965;50.660;13.226;2023-03-24T06:41:29;12.20;99.90
27224;DHT22;14965;50.660;13.226;2023-03-24T06:43:55;12.20;99.90
27224;DHT22;14965;50.660;13.226;2023-03-24T06:46:23;12.20;99.90
27224;DHT22;14965;50.660;13.226;2023-03-24T06:48:49;12.20;99.90
27224;DHT22;14965;50.660;13.226;2023-03-24T06:51:15;12.20;99.90
27224;DHT22;14965;50.660;13.226;2023-03-24T06:53:41;12.20;99.90
27224;DHT22;14965;50.660;13.226;2023-03-24T06:56:07;12.20;99.90
27224;DHT22;14965;50.660;13.226;2023-03-24T06:58:33;12.30;99.90
27224;DHT22;14965;50.660;13.226;2023-03-24T07:01:00;12.30;99.90
27224;DHT22;14965;50.660;13.226;2023-03-24T07:03:27;12.30;99.90
27224;DHT22;14965;50.660;13.226;2023-03-24T07:05:53;12.30;99.90
27224;DHT22;14965;50.660;13.226;2023-03-24T07:08:19;12.40;99.90
27224;DHT22;14965;50.660;13.226;2023-03-24T07:10:45;12.50;99.90
27224;DHT22;14965;50.660;13.226;2023-03-24T07:13:11;12.60;99.90
27224;DHT22;14965;50.660;13.226;2023-03-24T07:15:37;12.60;99.90
27224;DHT22;14965;50.660;13.226;2023-03-24T07:18:03;12.60;99.90
27224;DHT22;14965;50.660;13.226;2023-03-24T07:20:30;12.60;99.90
27224;DHT22;14965;50.660;13.226;2023-03-24T07:22:57;12.60;99.90
27224;DHT22;14965;50.660;13.226;2023-03-24T07:25:24;12.60;99.90
27224;DHT22;14965;50.660;13.226;2023-03-24T07:27:52;12.60;99.90
27224;DHT22;14965;50.660;13.226;2023-03-24T07:30:19;12.70;99.90
27224;DHT22;14965;50.660;13.226;2023-03-24T07:32:45;12.70;99.90
27224;DHT22;14965;50.660;13.226;2023-03-24T07:35:12;12.80;99.90
27224;DHT22;14965;50.660;13.226;2023-03-24T07:37:39;12.80;99.90
27224;DHT22;14965;50.660;13.226;2023-03-24T07:40:06;12.90;99.90
27224;DHT22;14965;50.660;13.226;2023-03-24T07:42:33;13.00;99.90
27224;DHT22;14965;50.660;13.226;2023-03-24T07:45:00;13.10;99.90
27224;DHT22;14965;50.660;13.226;2023-03-24T07:47:25;13.20;99.90
27224;DHT22;14965;50.660;13.226;2023-03-24T07:49:51;13.10;99.90
27224;DHT22;14965;50.660;13.226;2023-03-24T07:52:17;13.10;99.90
27224;DHT22;14965;50.660;13.226;2023-03-24T07:54:45;13.20;99.90
27224;DHT22;14965;50.660;13.226;2023-03-24T07:57:11;13.20;99.90
27224;DHT22;14965;50.660;13.226;2023-03-24T07:59:37;13.20;99.90
27224;DHT22;14965;50.660;13.226;2023-03-24T08:02:03;13.30;99.90
27224;DHT22;14965;50.660;13.226;2023-03-24T08:04:29;13.40;99.90
27224;DHT22;14965;50.660;13.226;2023-03-24T08:06:55;13.60;99.90
27224;DHT22;14965;50.660;13.226;2023-03-24T08:09:21;13.70;99.90
27224;DHT22;14965;50.660;13.226;2023-03-24T08:11:48;13.80;99.90
27224;DHT22;14965;50.660;13.226;2023-03-24T08:14:14;13.80;99.90
27224;DHT22;14965;50.660;13.226;2023-03-24T08:16:40;13.70;99.90
27224;DHT22;14965;50.660;13.226;2023-03-24T08:19:06;13.60;99.90
27224;DHT22;14965;50.660;13.226;2023-03-24T08:21:32;13.50;99.90
27224;DHT22;14965;50.660;13.226;2023-03-24T08:23:58;13.40;99.90
27224;DHT22;14965;50.660;13.226;2023-03-24T08:26:24;13.30;99.90
27224;DHT22;14965;50.660;13.226;2023-03-24T08:28:52;13.20;99.90
27224;DHT22;14965;50.660;13.226;2023-03-24T08:31:18;13.10;99.90
27224;DHT22;14965;50.660;13.226;2023-03-24T08:33:44;13.10;99.90
27224;DHT22;14965;50.660;13.226;2023-03-24T08:36:10;13.10;99.90
27224;DHT22;14965;50.660;13.226;2023-03-24T08:38:36;13.10;99.90
27224;DHT22;14965;50.660;13.226;2023-03-24T08:41:03;12.90;99.90
27224;DHT22;14965;50.660;13.226;2023-03-24T08:43:31;12.90;99.90
27224;DHT22;14965;50.660;13.226;2023-03-24T08:46:00;12.90;99.90
27224;DHT22;14965;50.660;13.226;2023-03-24T08:48:28;12.80;99.90
27224;DHT22;14965;50.660;13.226;2023-03-24T08:50:55;12.80;99.90
27224;DHT22;14965;50.660;13.226;2023-03-24T08:53:21;12.90;99.90
27224;DHT22;14965;50.660;13.226;2023-03-24T08:55:48;13.10;99.90
27224;DHT22;14965;50.660;13.226;2023-03-24T08:58:15;13.30;99.90
27224;DHT22;14965;50.660;13.226;2023-03-24T09:00:43;13.50;99.90
27224;DHT22;14965;50.660;13.226;2023-03-24T09:03:15;13.50;99.90
27224;DHT22;14965;50.660;13.226;2023-03-24T09:05:42;13.50;99.90
27224;DHT22;14965;50.660;13.226;2023-03-24T09:08:08;13.60;99.90
27224;DHT22;14965;50.660;13.226;2023-03-24T09:10:35;13.60;99.90
27224;DHT22;14965;50.660;13.226;2023-03-24T09:13:01;13.60;99.90
27224;DHT22;14965;50.660;13.226;2023-03-24T09:15:27;13.60;99.90
27224;DHT22;14965;50.660;13.226;2023-03-24T09:17:53;13.60;99.90
27224;DHT22;14965;50.660;13.226;2023-03-24T09:20:21;13.60;99.90
27224;DHT22;14965;50.660;13.226;2023-03-24T09:22:47;13.70;99.90
27224;DHT22;14965;50.660;13.226;2023-03-24T09:25:16;14.00;99.90
27224;DHT22;14965;50.660;13.226;2023-03-24T09:27:44;14.10;99.90
27224;DHT22;14965;50.660;13.226;2023-03-24T09:30:12;14.20;99.90
27224;DHT22;14965;50.660;13.226;2023-03-24T09:32:39;14.40;99.90
27224;DHT22;14965;50.660;13.226;2023-03-24T09:35:07;14.60;99.90
27224;DHT22;14965;50.660;13.226;2023-03-24T09:37:37;14.70;99.90
27224;DHT22;14965;50.660;13.226;2023-03-24T09:40:04;14.60;99.90
27224;DHT22;14965;50.660;13.226;2023-03-24T09:42:33;14.50;99.90
27224;DHT22;14965;50.660;13.226;2023-03-24T09:45:06;14.60;99.90
27224;DHT22;14965;50.660;13.226;2023-03-24T09:47:39;14.80;99.90
27224;DHT22;14965;50.660;13.226;2023-03-24T09:50:17;15.20;99.90
27224;DHT22;14965;50.660;13.226;2023-03-24T09:52:53;15.30;99.90
27224;DHT22;14965;50.660;13.226;2023-03-24T09:55:25;15.30;99.90
27224;DHT22;14965;50.660;13.226;2023-03-24T09:57:56;15.30;99.90
27224;DHT22;14965;50.660;13.226;2023-03-24T10:00:28;15.30;99.90
27224;DHT22;14965;50.660;13.226;2023-03-24T10:02:58;15.20;99.90
27224;DHT22;14965;50.660;13.226;2023-03-24T10:05:29;15.20;99.90
27224;DHT22;14965;50.660;13.226;2023-03-24T10:08:09;15.20;99.90
27224;DHT22;14965;50.660;13.226;2023-03-24T10:11:01;15.30;99.90
27224;DHT22;14965;50.660;13.226;2023-03-24T10:13:43;15.00;99.90
27224;DHT22;14965;50.660;13.226;2023-03-24T10:16:22;14.90;99.90
27224;DHT22;14965;50.660;13.226;2023-03-24T10:18:58;14.70;99.90
27224;DHT22;14965;50.660;13.226;2023-03-24T10:21:34;14.70;99.90
27224;DHT22;14965;50.660;13.226;2023-03-24T10:24:11;14.80;99.90
27224;DHT22;14965;50.660;13.226;2023-03-24T10:26:54;15.00;99.90
27224;DHT22;14965;50.660;13.226;2023-03-24T10:29:33;15.20;99.90
27224;DHT22;14965;50.660;13.226;2023-03-24T10:32:04;15.40;99.90
27224;DHT22;14965;50.660;13.226;2023-03-24T10:34:38;15.30;99.90
27224;DHT22;14965;50.660;13.226;2023-03-24T10:37:13;15.20;99.90
27224;DHT22;14965;50.660;13.226;2023-03-24T10:39:42;15.20;99.90
27224;DHT22;14965;50.660;13.226;2023-03-24T10:42:13;15.20;99.90
27224;DHT22;14965;50.660;13.226;2023-03-24T10:44:43;15.20;99.90
27224;DHT22;14965;50.660;13.226;2023-03-24T10:47:13;15.20;99.90
27224;DHT22;14965;50.660;13.226;2023-03-24T10:49:52;15.20;99.90
27224;DHT22;14965;50.660;13.226;2023-03-24T10:52:20;15.30;99.90
27224;DHT22;14965;50.660;13.226;2023-03-24T10:54:55;15.40;99.90
27224;DHT22;14965;50.660;13.226;2023-03-24T10:57:23;15.40;99.90
27224;DHT22;14965;50.660;13.226;2023-03-24T10:59:53;15.30;99.90
27224;DHT22;14965;50.660;13.226;2023-03-24T11:02:23;15.20;99.90
27224;DHT22;14965;50.660;13.226;2023-03-24T11:04:54;15.10;99.90
27224;DHT22;14965;50.660;13.226;2023-03-24T11:07:24;15.10;99.90
27224;DHT22;14965;50.660;13.226;2023-03-24T11:10:03;15.00;99.90
27224;DHT22;14965;50.660;13.226;2023-03-24T11:12:33;14.90;99.90
27224;DHT22;14965;50.660;13.226;2023-03-24T11:15:05;14.80;99.90
27224;DHT22;14965;50.660;13.226;2023-03-24T11:17:40;14.70;99.90
27224;DHT22;14965;50.660;13.226;2023-03-24T11:20:16;14.60;99.90
27224;DHT22;14965;50.660;13.226;2023-03-24T11:22:55;14.50;99.90
27224;DHT22;14965;50.660;13.226;2023-03-24T11:25:28;14.40;99.90
27224;DHT22;14965;50.660;13.226;2023-03-24T11:27:58;14.40;99.90
27224;DHT22;14965;50.660;13.226;2023-03-24T11:30:29;14.30;99.90
27224;DHT22;14965;50.660;13.226;2023-03-24T11:32:59;14.20;99.90
27224;DHT22;14965;50.660;13.226;2023-03-24T11:35:27;14.10;99.90
27224;DHT22;14965;50.660;13.226;2023-03-24T11:37:53;14.30;99.90
27224;DHT22;14965;50.660;13.226;2023-03-24T11:40:24;14.40;99.90
27224;DHT22;14965;50.660;13.226;2023-03-24T11:42:54;14.50;99.90
27224;DHT22;14965;50.660;13.226;2023-03-24T11:45:30;14.60;99.90
27224;DHT22;14965;50.660;13.226;2023-03-24T11:48:09;14.60;99.90
27224;DHT22;14965;50.660;13.226;2023-03-24T11:50:43;14.50;99.90
27224;DHT22;14965;50.660;13.226;2023-03-24T11:53:14;14.30;99.90
27224;DHT22;14965;50.660;13.226;2023-03-24T11:55:50;14.20;99.90
27224;DHT22;14965;50.660;13.226;2023-03-24T11:58:28;14.10;99.90
27224;DHT22;14965;50.660;13.226;2023-03-24T12:01:04;14.00;99.90
27224;DHT22;14965;50.660;13.226;2023-03-24T12:03:49;13.80;99.90
27224;DHT22;14965;50.660;13.226;2023-03-24T12:06:39;13.70;99.90
27224;DHT22;14965;50.660;13.226;2023-03-24T12:09:21;13.70;99.90
27224;DHT22;14965;50.660;13.226;2023-03-24T12:12:12;13.60;99.90
27224;DHT22;14965;50.660;13.226;2023-03-24T12:14:59;13.60;99.90
27224;DHT22;14965;50.660;13.226;2023-03-24T12:17:50;13.50;99.90
27224;DHT22;14965;50.660;13.226;2023-03-24T12:20:26;13.40;99.90
27224;DHT22;14965;50.660;13.226;2023-03-24T12:22:59;13.40;99.90
27224;DHT22;14965;50.660;13.226;2023-03-24T12:25:44;13.30;99.90
27224;DHT22;14965;50.660;13.226;2023-03-24T12:28:23;13.30;99.90
27224;DHT22;14965;50.660;13.226;2023-03-24T12:31:12;13.20;99.90
27224;DHT22;14965;50.660;13.226;2023-03-24T12:34:00;13.10;99.90
27224;DHT22;14965;50.660;13.226;2023-03-24T12:36:42;13.00;99.90
27224;DHT22;14965;50.660;13.226;2023-03-24T12:39:20;13.00;99.90
27224;DHT22;14965;50.660;13.226;2023-03-24T12:42:10;13.10;99.90
27224;DHT22;14965;50.660;13.226;2023-03-24T12:51:03;13.50;99.90
27224;DHT22;14965;50.660;13.226;2023-03-24T12:53:55;13.40;99.90
27224;DHT22;14965;50.660;13.226;2023-03-24T12:56:35;13.40;99.90
27224;DHT22;14965;50.660;13.226;2023-03-24T12:59:09;13.30;99.90
27224;DHT22;14965;50.660;13.226;2023-03-24T13:01:42;13.20;99.90
27224;DHT22;14965;50.660;13.226;2023-03-24T13:04:16;13.10;99.90
27224;DHT22;14965;50.660;13.226;2023-03-24T13:06:49;13.00;99.90
27224;DHT22;14965;50.660;13.226;2023-03-24T13:09:24;13.10;99.90
27224;DHT22;14965;50.660;13.226;2023-03-24T13:12:02;13.00;99.90
27224;DHT22;14965;50.660;13.226;2023-03-24T13:14:43;13.00;99.90
27224;DHT22;14965;50.660;13.226;2023-03-24T13:17:20;13.00;99.90
27224;DHT22;14965;50.660;13.226;2023-03-24T13:19:53;12.90;99.90
27224;DHT22;14965;50.660;13.226;2023-03-24T13:22:21;13.00;99.90
27224;DHT22;14965;50.660;13.226;2023-03-24T13:24:50;13.10;99.90
27224;DHT22;14965;50.660;13.226;2023-03-24T13:27:19;13.20;99.90
27224;DHT22;14965;50.660;13.226;2023-03-24T13:32:48;13.40;99.90
27224;DHT22;14965;50.660;13.226;2023-03-24T13:35:26;13.40;99.90
27224;DHT22;14965;50.660;13.226;2023-03-24T13:38:07;13.30;99.90
27224;DHT22;14965;50.660;13.226;2023-03-24T13:40:48;13.20;99.90
27224;DHT22;14965;50.660;13.226;2023-03-24T13:43:18;13.20;99.90
27224;DHT22;14965;50.660;13.226;2023-03-24T13:45:48;13.30;99.90
27224;DHT22;14965;50.660;13.226;2023-03-24T13:48:28;13.30;99.90
27224;DHT22;14965;50.660;13.226;2023-03-24T13:50:59;13.40;99.90
27224;DHT22;14965;50.660;13.226;2023-03-24T13:53:37;13.60;99.90
27224;DHT22;14965;50.660;13.226;2023-03-24T13:56:09;13.60;99.90
27224;DHT22;14965;50.660;13.226;2023-03-24T13:58:45;13.60;99.90
27224;DHT22;14965;50.660;13.226;2023-03-24T14:01:29;13.50;99.90
27224;DHT22;14965;50.660;13.226;2023-03-24T14:04:21;13.30;99.90
27224;DHT22;14965;50.660;13.226;2023-03-24T14:06:52;12.20;99.90
27224;DHT22;14965;50.660;13.226;2023-03-24T14:09:20;11.50;99.90
27224;DHT22;14965;50.660;13.226;2023-03-24T14:11:49;10.80;99.90
27224;DHT22;14965;50.660;13.226;2023-03-24T14:14:34;10.50;99.90
27224;DHT22;14965;50.660;13.226;2023-03-24T14:17:11;10.30;99.90
27224;DHT22;14965;50.660;13.226;2023-03-24T14:19:40;10.00;99.90
27224;DHT22;14965;50.660;13.226;2023-03-24T14:22:14;9.90;99.90
27224;DHT22;14965;50.660;13.226;2023-03-24T14:24:56;9.70;99.90
27224;DHT22;14965;50.660;13.226;2023-03-24T14:27:35;9.50;99.90
27224;DHT22;14965;50.660;13.226;2023-03-24T14:30:15;9.40;99.90
27224;DHT22;14965;50.660;13.226;2023-03-24T14:32:46;9.40;99.90
27224;DHT22;14965;50.660;13.226;2023-03-24T14:35:29;9.30;99.90
27224;DHT22;14965;50.660;13.226;2023-03-24T14:38:01;9.40;99.90
27224;DHT22;14965;50.660;13.226;2023-03-24T14:40:34;9.40;99.90
27224;DHT22;14965;50.660;13.226;2023-03-24T14:43:17;9.40;99.90
27224;DHT22;14965;50.660;13.226;2023-03-24T14:45:58;9.30;99.90
27224;DHT22;14965;50.660;13.226;2023-03-24T14:48:37;9.20;99.90
27224;DHT22;14965;50.660;13.226;2023-03-24T14:51:34;9.20;99.90
27224;DHT22;14965;50.660;13.226;2023-03-24T14:54:05;9.20;99.90
27224;DHT22;14965;50.660;13.226;2023-03-24T14:56:40;9.20;99.90
27224;DHT22;14965;50.660;13.226;2023-03-24T14:59:10;9.10;99.90
27224;DHT22;14965;50.660;13.226;2023-03-24T15:01:46;9.10;99.90
27224;DHT22;14965;50.660;13.226;2023-03-24T15:04:15;9.10;99.90
27224;DHT22;14965;50.660;13.226;2023-03-24T15:06:44;9.10;99.90
27224;DHT22;14965;50.660;13.226;2023-03-24T15:09:14;9.10;99.90
27224;DHT22;14965;50.660;13.226;2023-03-24T15:11:42;9.00;99.90
27224;DHT22;14965;50.660;13.226;2023-03-24T15:14:22;9.10;99.90
27224;DHT22;14965;50.660;13.226;2023-03-24T15:16:50;9.00;99.90
27224;DHT22;14965;50.660;13.226;2023-03-24T15:19:19;9.00;99.90
27224;DHT22;14965;50.660;13.226;2023-03-24T15:21:48;9.00;99.90
27224;DHT22;14965;50.660;13.226;2023-03-24T15:24:31;9.10;99.90
27224;DHT22;14965;50.660;13.226;2023-03-24T15:27:17;9.10;99.90
27224;DHT22;14965;50.660;13.226;2023-03-24T15:29:53;9.10;99.90
27224;DHT22;14965;50.660;13.226;2023-03-24T15:32:22;9.20;99.90
27224;DHT22;14965;50.660;13.226;2023-03-24T15:34:50;9.20;99.90
27224;DHT22;14965;50.660;13.226;2023-03-24T15:37:21;9.30;99.90
27224;DHT22;14965;50.660;13.226;2023-03-24T15:39:49;9.30;99.90
27224;DHT22;14965;50.660;13.226;2023-03-24T15:42:20;9.30;99.90
27224;DHT22;14965;50.660;13.226;2023-03-24T15:44:48;9.30;99.90
27224;DHT22;14965;50.660;13.226;2023-03-24T15:47:19;9.40;99.90
27224;DHT22;14965;50.660;13.226;2023-03-24T15:49:49;9.30;99.90
27224;DHT22;14965;50.660;13.226;2023-03-24T15:52:27;9.20;99.90
27224;DHT22;14965;50.660;13.226;2023-03-24T15:54:57;9.20;99.90